sensor_id;sensor_type;location;lat;lon;timestamp;temperature;humidity
33067;DHT22;19428;49.024;8.366;2023-08-12T00:00:29;19.80;99.90
33067;DHT22;19428;49.024;8.366;2023-08-12T00:03:14;19.80;99.90
33067;DHT22;19428;49.024;8.366;2023-08-12T00:06:00;19.80;99.90
33067;DHT22;19428;49.024;8.366;2023-08-12T00:15:45;20.00;99.90
33067;DHT22;19428;49.024;8.366;2023-08-12T00:19:03;20.00;99.90
33067;DHT22;19428;49.024;8.366;2023-08-12T00:22:11;20.30;99.90
33067;DHT22;19428;49.024;8.366;2023-08-12T00:28:08;20.10;99.90
33067;DHT22;19428;49.024;8.366;2023-08-12T00:30:41;20.30;99.90
33067;DHT22;19428;49.024;8.366;2023-08-12T00:37:06;20.30;99.90
33067;DHT22;19428;49.024;8.366;2023-08-12T00:43:43;20.20;99.90
33067;DHT22;19428;49.024;8.366;2023-08-12T00:46:42;20.20;99.90
33067;DHT22;19428;49.024;8.366;2023-08-12T00:52:55;20.20;99.90
33067;DHT22;19428;49.024;8.366;2023-08-12T00:56:11;20.20;99.90
33067;DHT22;19428;49.024;8.366;2023-08-12T00:59:23;20.30;99.90
33067;DHT22;19428;49.024;8.366;2023-08-12T01:02:27;20.30;99.90
33067;DHT22;19428;49.024;8.366;2023-08-12T01:05:17;20.30;99.90
33067;DHT22;19428;49.024;8.366;2023-08-12T01:08:32;20.40;99.90
33067;DHT22;19428;49.024;8.366;2023-08-12T01:11:28;20.50;99.90
33067;DHT22;19428;49.024;8.366;2023-08-12T01:18:08;20.40;99.90
33067;DHT22;19428;49.024;8.366;2023-08-12T01:20:50;20.50;99.90
33067;DHT22;19428;49.024;8.366;2023-08-12T01:23:52;20.50;99.90
33067;DHT22;19428;49.024;8.366;2023-08-12T01:26:50;20.70;99.90
33067;DHT22;19428;49.024;8.366;2023-08-12T01:29:26;20.80;99.90
33067;DHT22;19428;49.024;8.366;2023-08-12T01:32:09;20.70;99.90
33067;DHT22;19428;49.024;8.366;2023-08-12T01:44:18;20.90;99.90
33067;DHT22;19428;49.024;8.366;2023-08-12T01:47:36;20.90;99.90
33067;DHT22;19428;49.024;8.366;2023-08-12T01:53:22;20.60;99.90
33067;DHT22;19428;49.024;8.366;2023-08-12T02:05:27;20.30;99.90
33067;DHT22;19428;49.024;8.366;2023-08-12T02:09:10;20.30;99.90
33067;DHT22;19428;49.024;8.366;2023-08-12T02:15:58;21.10;99.90
33067;DHT22;19428;49.024;8.366;2023-08-12T02:19:28;21.10;99.90
33067;DHT22;19428;49.024;8.366;2023-08-12T02:22:53;21.10;99.90
33067;DHT22;19428;49.024;8.366;2023-08-12T02:26:00;21.10;99.90
33067;DHT22;19428;49.024;8.366;2023-08-12T02:29:15;21.10;99.90
33067;DHT22;19428;49.024;8.366;2023-08-12T02:32:36;21.00;99.90
33067;DHT22;19428;49.024;8.366;2023-08-12T02:46:02;21.20;99.90
33067;DHT22;19428;49.024;8.366;2023-08-12T02:49:05;21.20;99.90
33067;DHT22;19428;49.024;8.366;2023-08-12T02:55:15;21.10;99.90
33067;DHT22;19428;49.024;8.366;2023-08-12T03:01:58;21.10;99.90
33067;DHT22;19428;49.024;8.366;2023-08-12T03:05:01;21.10;99.90
33067;DHT22;19428;49.024;8.366;2023-08-12T03:08:04;21.10;99.90
33067;DHT22;19428;49.024;8.366;2023-08-12T03:14:28;21.10;99.90
33067;DHT22;19428;49.024;8.366;2023-08-12T03:20:28;21.10;99.90
33067;DHT22;19428;49.024;8.366;2023-08-12T03:23:25;21.10;99.90
33067;DHT22;19428;49.024;8.366;2023-08-12T03:31:58;21.30;99.90
33067;DHT22;19428;49.024;8.366;2023-08-12T03:37:47;21.30;99.90
33067;DHT22;19428;49.024;8.366;2023-08-12T03:40:16;21.40;99.90
33067;DHT22;19428;49.024;8.366;2023-08-12T03:45:30;21.40;99.90
33067;DHT22;19428;49.024;8.366;2023-08-12T03:47:56;21.50;99.90
33067;DHT22;19428;49.024;8.366;2023-08-12T03:53:58;21.50;99.90
33067;DHT22;19428;49.024;8.366;2023-08-12T03:56:54;21.60;99.90
33067;DHT22;19428;49.024;8.366;2023-08-12T03:59:31;21.50;99.90
33067;DHT22;19428;49.024;8.366;2023-08-12T04:04:56;21.60;99.90
33067;DHT22;19428;49.024;8.366;2023-08-12T04:07:30;21.60;99.90
33067;DHT22;19428;49.024;8.366;2023-08-12T04:10:16;21.60;99.90
33067;DHT22;19428;49.024;8.366;2023-08-12T04:13:25;21.70;99.90
33067;DHT22;19428;49.024;8.366;2023-08-12T04:16:00;21.70;99.90
33067;DHT22;19428;49.024;8.366;2023-08-12T04:18:30;21.70;99.90
33067;DHT22;19428;49.024;8.366;2023-08-12T04:20:58;21.70;99.90
33067;DHT22;19428;49.024;8.366;2023-08-12T04:23:23;21.70;99.90
33067;DHT22;19428;49.024;8.366;2023-08-12T04:25:52;21.80;99.90
33067;DHT22;19428;49.024;8.366;2023-08-12T04:28:19;21.80;99.90
33067;DHT22;19428;49.024;8.366;2023-08-12T04:30:47;21.80;99.90
33067;DHT22;19428;49.024;8.366;2023-08-12T04:33:17;21.70;99.90
33067;DHT22;19428;49.024;8.366;2023-08-12T04:35:45;21.70;99.90
33067;DHT22;19428;49.024;8.366;2023-08-12T04:38:11;21.70;99.90
33067;DHT22;19428;49.024;8.366;2023-08-12T04:40:41;21.70;99.90
33067;DHT22;19428;49.024;8.366;2023-08-12T04:43:08;21.60;99.90
33067;DHT22;19428;49.024;8.366;2023-08-12T04:45:34;21.60;99.90
33067;DHT22;19428;49.024;8.366;2023-08-12T04:47:59;21.60;99.90
33067;DHT22;19428;49.024;8.366;2023-08-12T04:50:25;21.60;99.90
33067;DHT22;19428;49.024;8.366;2023-08-12T04:52:51;21.50;99.90
33067;DHT22;19428;49.024;8.366;2023-08-12T04:55:16;21.60;99.90
33067;DHT22;19428;49.024;8.366;2023-08-12T04:57:49;21.50;99.90
33067;DHT22;19428;49.024;8.366;2023-08-12T05:00:17;21.60;99.90
33067;DHT22;19428;49.024;8.366;2023-08-12T05:02:43;21.60;99.90
33067;DHT22;19428;49.024;8.366;2023-08-12T05:05:13;21.60;99.90
33067;DHT22;19428;49.024;8.366;2023-08-12T05:07:48;21.60;99.90
33067;DHT22;19428;49.024;8.366;2023-08-12T05:10:17;21.60;99.90
33067;DHT22;19428;49.024;8.366;2023-08-12T05:12:46;21.60;99.90
33067;DHT22;19428;49.024;8.366;2023-08-12T05:15:28;21.50;99.90
33067;DHT22;19428;49.024;8.366;2023-08-12T05:17:56;21.60;99.90
33067;DHT22;19428;49.024;8.366;2023-08-12T05:21:12;21.60;99.90
33067;DHT22;19428;49.024;8.366;2023-08-12T05:24:03;21.50;99.90
33067;DHT22;19428;49.024;8.366;2023-08-12T05:27:02;21.60;99.90
33067;DHT22;19428;49.024;8.366;2023-08-12T05:29:29;21.60;99.90
33067;DHT22;19428;49.024;8.366;2023-08-12T05:32:02;21.70;99.90
33067;DHT22;19428;49.024;8.366;2023-08-12T05:45:25;21.80;99.90
33067;DHT22;19428;49.024;8.366;2023-08-12T06:19:30;22.00;99.90
33067;DHT22;19428;49.024;8.366;2023-08-12T06:22:13;21.90;99.90
33067;DHT22;19428;49.024;8.366;2023-08-12T06:25:03;22.20;99.90
33067;DHT22;19428;49.024;8.366;2023-08-12T06:28:04;22.10;99.90
33067;DHT22;19428;49.024;8.366;2023-08-12T06:39:58;22.30;99.90
33067;DHT22;19428;49.024;8.366;2023-08-12T06:42:43;22.30;99.90
33067;DHT22;19428;49.024;8.366;2023-08-12T06:45:11;22.40;99.90
33067;DHT22;19428;49.024;8.366;2023-08-12T06:47:44;22.40;99.90
33067;DHT22;19428;49.024;8.366;2023-08-12T06:50:12;22.30;99.90
33067;DHT22;19428;49.024;8.366;2023-08-12T06:52:45;22.30;99.90
33067;DHT22;19428;49.024;8.366;2023-08-12T06:55:29;22.30;99.90
33067;DHT22;19428;49.024;8.366;2023-08-12T06:57:55;22.40;99.90
33067;DHT22;19428;49.024;8.366;2023-08-12T07:00:38;22.60;99.90
33067;DHT22;19428;49.024;8.366;2023-08-12T07:03:10;22.70;99.90
33067;DHT22;19428;49.024;8.366;2023-08-12T07:05:50;22.80;99.90
33067;DHT22;19428;49.024;8.366;2023-08-12T07:11:28;23.10;99.90
33067;DHT22;19428;49.024;8.366;2023-08-12T07:14:00;23.00;99.90
33067;DHT22;19428;49.024;8.366;2023-08-12T07:16:37;22.90;99.90
33067;DHT22;19428;49.024;8.366;2023-08-12T07:19:21;22.80;99.90
33067;DHT22;19428;49.024;8.366;2023-08-12T07:21:54;22.90;99.90
33067;DHT22;19428;49.024;8.366;2023-08-12T07:27:31;22.90;99.90
33067;DHT22;19428;49.024;8.366;2023-08-12T07:30:19;22.90;99.90
33067;DHT22;19428;49.024;8.366;2023-08-12T07:33:21;23.10;99.90
33067;DHT22;19428;49.024;8.366;2023-08-12T07:36:46;23.20;99.90
33067;DHT22;19428;49.024;8.366;2023-08-12T07:39:34;23.00;99.90
33067;DHT22;19428;49.024;8.366;2023-08-12T08:16:56;24.80;99.90
33067;DHT22;19428;49.024;8.366;2023-08-12T08:19:43;24.40;99.90
33067;DHT22;19428;49.024;8.366;2023-08-12T08:22:08;24.50;99.90
33067;DHT22;19428;49.024;8.366;2023-08-12T08:25:12;24.40;99.90
33067;DHT22;19428;49.024;8.366;2023-08-12T08:27:48;24.50;99.90
33067;DHT22;19428;49.024;8.366;2023-08-12T08:30:30;24.80;99.90
33067;DHT22;19428;49.024;8.366;2023-08-12T08:32:55;24.90;99.90
33067;DHT22;19428;49.024;8.366;2023-08-12T08:35:48;25.00;99.90
33067;DHT22;19428;49.024;8.366;2023-08-12T08:38:42;24.80;99.90
33067;DHT22;19428;49.024;8.366;2023-08-12T08:41:24;24.90;99.90
33067;DHT22;19428;49.024;8.366;2023-08-12T08:47:16;25.20;99.90
33067;DHT22;19428;49.024;8.366;2023-08-12T08:50:15;25.40;99.90
33067;DHT22;19428;49.024;8.366;2023-08-12T08:53:06;25.60;99.90
33067;DHT22;19428;49.024;8.366;2023-08-12T08:55:33;25.70;99.90
33067;DHT22;19428;49.024;8.366;2023-08-12T09:05:43;25.80;99.90
33067;DHT22;19428;49.024;8.366;2023-08-12T09:08:09;26.10;99.90
33067;DHT22;19428;49.024;8.366;2023-08-12T09:10:37;26.30;99.90
33067;DHT22;19428;49.024;8.366;2023-08-12T09:13:12;26.40;99.90
33067;DHT22;19428;49.024;8.366;2023-08-12T09:18:31;26.10;99.90
33067;DHT22;19428;49.024;8.366;2023-08-12T09:21:00;26.30;99.90
33067;DHT22;19428;49.024;8.366;2023-08-12T09:23:40;26.60;99.90
33067;DHT22;19428;49.024;8.366;2023-08-12T09:26:17;26.50;99.90
33067;DHT22;19428;49.024;8.366;2023-08-12T09:28:44;26.50;99.90
33067;DHT22;19428;49.024;8.366;2023-08-12T09:31:28;26.60;99.90
33067;DHT22;19428;49.024;8.366;2023-08-12T09:33:57;26.60;99.90
33067;DHT22;19428;49.024;8.366;2023-08-12T09:36:23;26.70;99.90
33067;DHT22;19428;49.024;8.366;2023-08-12T09:38:49;26.60;99.90
33067;DHT22;19428;49.024;8.366;2023-08-12T09:44:46;26.50;99.90
33067;DHT22;19428;49.024;8.366;2023-08-12T09:47:27;26.70;99.90
33067;DHT22;19428;49.024;8.366;2023-08-12T09:49:55;26.70;99.90
33067;DHT22;19428;49.024;8.366;2023-08-12T09:52:22;26.80;99.90
33067;DHT22;19428;49.024;8.366;2023-08-12T09:54:54;27.00;99.90
33067;DHT22;19428;49.024;8.366;2023-08-12T10:00:42;27.20;99.90
33067;DHT22;19428;49.024;8.366;2023-08-12T10:03:08;27.20;99.90
33067;DHT22;19428;49.024;8.366;2023-08-12T10:05:35;27.50;99.90
33067;DHT22;19428;49.024;8.366;2023-08-12T10:08:00;27.30;99.90
33067;DHT22;19428;49.024;8.366;2023-08-12T10:13:43;27.10;99.90
33067;DHT22;19428;49.024;8.366;2023-08-12T10:16:09;27.30;97.70
33067;DHT22;19428;49.024;8.366;2023-08-12T10:18:36;27.20;97.00
33067;DHT22;19428;49.024;8.366;2023-08-12T10:21:04;27.10;92.70
33067;DHT22;19428;49.024;8.366;2023-08-12T10:23:32;27.10;91.80
33067;DHT22;19428;49.024;8.366;2023-08-12T10:26:02;27.30;90.70
33067;DHT22;19428;49.024;8.366;2023-08-12T10:28:34;27.10;88.10
33067;DHT22;19428;49.024;8.366;2023-08-12T10:31:04;26.90;91.50
33067;DHT22;19428;49.024;8.366;2023-08-12T10:33:34;27.30;93.50
33067;DHT22;19428;49.024;8.366;2023-08-12T10:36:03;27.30;91.00
33067;DHT22;19428;49.024;8.366;2023-08-12T10:38:29;27.10;92.20
33067;DHT22;19428;49.024;8.366;2023-08-12T10:41:20;27.00;92.10
33067;DHT22;19428;49.024;8.366;2023-08-12T10:44:02;27.00;94.20
33067;DHT22;19428;49.024;8.366;2023-08-12T10:50:01;26.70;95.70
33067;DHT22;19428;49.024;8.366;2023-08-12T11:01:23;26.30;95.90
33067;DHT22;19428;49.024;8.366;2023-08-12T11:03:49;25.80;99.90
33067;DHT22;19428;49.024;8.366;2023-08-12T11:06:14;25.40;99.90
33067;DHT22;19428;49.024;8.366;2023-08-12T11:08:53;24.70;99.90
33067;DHT22;19428;49.024;8.366;2023-08-12T11:11:22;24.40;99.90
33067;DHT22;19428;49.024;8.366;2023-08-12T11:13:53;24.20;99.90
33067;DHT22;19428;49.024;8.366;2023-08-12T11:16:35;24.20;99.90
33067;DHT22;19428;49.024;8.366;2023-08-12T11:19:14;24.10;99.90
33067;DHT22;19428;49.024;8.366;2023-08-12T11:21:52;24.10;99.90
33067;DHT22;19428;49.024;8.366;2023-08-12T11:24:21;24.30;99.90
33067;DHT22;19428;49.024;8.366;2023-08-12T11:26:48;24.40;99.90
33067;DHT22;19428;49.024;8.366;2023-08-12T11:29:14;24.50;99.90
33067;DHT22;19428;49.024;8.366;2023-08-12T11:31:41;24.60;99.90
33067;DHT22;19428;49.024;8.366;2023-08-12T11:34:15;24.70;99.90
33067;DHT22;19428;49.024;8.366;2023-08-12T11:36:42;24.90;99.90
33067;DHT22;19428;49.024;8.366;2023-08-12T11:39:21;24.80;99.90
33067;DHT22;19428;49.024;8.366;2023-08-12T11:49:29;25.40;99.90
33067;DHT22;19428;49.024;8.366;2023-08-12T11:51:55;24.90;99.90
33067;DHT22;19428;49.024;8.366;2023-08-12T11:54:20;24.90;99.90
33067;DHT22;19428;49.024;8.366;2023-08-12T11:56:46;24.90;99.90
33067;DHT22;19428;49.024;8.366;2023-08-12T11:59:12;25.30;99.90
33067;DHT22;19428;49.024;8.366;2023-08-12T12:01:38;25.50;99.90
33067;DHT22;19428;49.024;8.366;2023-08-12T12:04:04;25.80;99.90
33067;DHT22;19428;49.024;8.366;2023-08-12T12:06:37;26.80;99.90
33067;DHT22;19428;49.024;8.366;2023-08-12T12:09:12;26.50;99.90
33067;DHT22;19428;49.024;8.366;2023-08-12T12:11:39;26.10;99.90
33067;DHT22;19428;49.024;8.366;2023-08-12T12:14:06;26.70;99.90
33067;DHT22;19428;49.024;8.366;2023-08-12T12:16:40;27.00;99.90
33067;DHT22;19428;49.024;8.366;2023-08-12T12:21:44;26.70;99.90
33067;DHT22;19428;49.024;8.366;2023-08-12T12:24:10;26.90;99.90
33067;DHT22;19428;49.024;8.366;2023-08-12T12:26:36;27.30;99.90
33067;DHT22;19428;49.024;8.366;2023-08-12T12:29:03;27.80;99.90
33067;DHT22;19428;49.024;8.366;2023-08-12T12:31:30;27.00;99.90
33067;DHT22;19428;49.024;8.366;2023-08-12T12:33:56;26.50;99.90
33067;DHT22;19428;49.024;8.366;2023-08-12T12:36:22;26.20;99.90
33067;DHT22;19428;49.024;8.366;2023-08-12T12:38:47;26.20;99.90
33067;DHT22;19428;49.024;8.366;2023-08-12T12:41:13;26.30;99.90
33067;DHT22;19428;49.024;8.366;2023-08-12T12:43:39;26.40;99.90
33067;DHT22;19428;49.024;8.366;2023-08-12T12:46:05;26.90;99.90
33067;DHT22;19428;49.024;8.366;2023-08-12T12:48:31;27.90;99.90
33067;DHT22;19428;49.024;8.366;2023-08-12T12:50:56;28.50;99.90
33067;DHT22;19428;49.024;8.366;2023-08-12T12:53:22;28.30;99.90
33067;DHT22;19428;49.024;8.366;2023-08-12T12:55:48;27.80;99.90
33067;DHT22;19428;49.024;8.366;2023-08-12T12:58:14;28.50;99.90
33067;DHT22;19428;49.024;8.366;2023-08-12T13:00:40;28.30;99.90
33067;DHT22;19428;49.024;8.366;2023-08-12T13:03:05;28.40;99.90
33067;DHT22;19428;49.024;8.366;2023-08-12T13:05:31;28.10;97.20
33067;DHT22;19428;49.024;8.366;2023-08-12T13:07:56;28.70;99.90
33067;DHT22;19428;49.024;8.366;2023-08-12T13:10:22;28.60;96.90
33067;DHT22;19428;49.024;8.366;2023-08-12T13:12:48;28.40;96.40
33067;DHT22;19428;49.024;8.366;2023-08-12T13:15:13;28.30;96.20
33067;DHT22;19428;49.024;8.366;2023-08-12T13:17:39;28.60;98.00
33067;DHT22;19428;49.024;8.366;2023-08-12T13:20:05;28.90;92.50
33067;DHT22;19428;49.024;8.366;2023-08-12T13:22:31;28.50;92.50
33067;DHT22;19428;49.024;8.366;2023-08-12T13:24:57;28.40;94.00
33067;DHT22;19428;49.024;8.366;2023-08-12T13:27:25;28.30;85.10
33067;DHT22;19428;49.024;8.366;2023-08-12T13:29:51;28.10;86.00
33067;DHT22;19428;49.024;8.366;2023-08-12T13:32:16;27.90;92.60
33067;DHT22;19428;49.024;8.366;2023-08-12T13:34:42;28.20;91.90
33067;DHT22;19428;49.024;8.366;2023-08-12T13:37:11;28.30;91.70
33067;DHT22;19428;49.024;8.366;2023-08-12T13:39:37;28.70;87.60
33067;DHT22;19428;49.024;8.366;2023-08-12T13:42:02;28.50;90.40
33067;DHT22;19428;49.024;8.366;2023-08-12T13:44:28;29.00;89.20
33067;DHT22;19428;49.024;8.366;2023-08-12T13:46:54;28.70;88.30
33067;DHT22;19428;49.024;8.366;2023-08-12T13:49:19;29.00;85.00
33067;DHT22;19428;49.024;8.366;2023-08-12T13:51:45;28.90;86.50
33067;DHT22;19428;49.024;8.366;2023-08-12T13:54:10;28.70;86.30
33067;DHT22;19428;49.024;8.366;2023-08-12T13:56:36;29.00;79.30
33067;DHT22;19428;49.024;8.366;2023-08-12T13:59:02;28.80;81.00
33067;DHT22;19428;49.024;8.366;2023-08-12T14:01:27;29.70;83.70
33067;DHT22;19428;49.024;8.366;2023-08-12T14:03:53;29.30;73.30
33067;DHT22;19428;49.024;8.366;2023-08-12T14:06:19;29.60;78.00
33067;DHT22;19428;49.024;8.366;2023-08-12T14:08:44;28.70;76.80
33067;DHT22;19428;49.024;8.366;2023-08-12T14:11:10;28.10;89.40
33067;DHT22;19428;49.024;8.366;2023-08-12T14:13:35;27.90;93.10
33067;DHT22;19428;49.024;8.366;2023-08-12T14:16:01;27.60;97.00
33067;DHT22;19428;49.024;8.366;2023-08-12T14:18:27;27.50;96.80
33067;DHT22;19428;49.024;8.366;2023-08-12T14:20:52;27.30;97.80
33067;DHT22;19428;49.024;8.366;2023-08-12T14:23:18;27.10;98.20
33067;DHT22;19428;49.024;8.366;2023-08-12T14:25:44;26.90;99.90
33067;DHT22;19428;49.024;8.366;2023-08-12T14:28:09;26.90;99.90
33067;DHT22;19428;49.024;8.366;2023-08-12T14:30:35;26.80;99.90
33067;DHT22;19428;49.024;8.366;2023-08-12T14:33:03;26.90;99.90
33067;DHT22;19428;49.024;8.366;2023-08-12T14:35:39;26.60;99.90
33067;DHT22;19428;49.024;8.366;2023-08-12T14:38:06;26.10;99.90
33067;DHT22;19428;49.024;8.366;2023-08-12T14:40:31;25.70;99.90
33067;DHT22;19428;49.024;8.366;2023-08-12T14:42:57;25.30;99.90
33067;DHT22;19428;49.024;8.366;2023-08-12T14:45:23;24.90;99.90
33067;DHT22;19428;49.024;8.366;2023-08-12T14:47:49;24.40;99.90
33067;DHT22;19428;49.024;8.366;2023-08-12T14:50:14;23.70;99.90
33067;DHT22;19428;49.024;8.366;2023-08-12T14:52:40;23.50;99.90
33067;DHT22;19428;49.024;8.366;2023-08-12T14:55:06;23.40;99.90
33067;DHT22;19428;49.024;8.366;2023-08-12T14:57:32;23.00;99.90
33067;DHT22;19428;49.024;8.366;2023-08-12T14:59:57;23.00;99.90
33067;DHT22;19428;49.024;8.366;2023-08-12T15:02:23;23.20;99.90
33067;DHT22;19428;49.024;8.366;2023-08-12T15:04:49;23.40;99.90
33067;DHT22;19428;49.024;8.366;2023-08-12T15:07:17;23.40;99.90
33067;DHT22;19428;49.024;8.366;2023-08-12T15:09:48;23.20;99.90
33067;DHT22;19428;49.024;8.366;2023-08-12T15:12:14;23.20;99.90
33067;DHT22;19428;49.024;8.366;2023-08-12T15:14:42;23.20;99.90
33067;DHT22;19428;49.024;8.366;2023-08-12T15:17:08;23.30;99.90
33067;DHT22;19428;49.024;8.366;2023-08-12T15:19:34;23.50;99.90
33067;DHT22;19428;49.024;8.366;2023-08-12T15:21:59;23.50;99.90
33067;DHT22;19428;49.024;8.366;2023-08-12T15:24:25;23.60;99.90
33067;DHT22;19428;49.024;8.366;2023-08-12T15:26:51;23.30;99.90
33067;DHT22;19428;49.024;8.366;2023-08-12T15:29:16;23.30;99.90
33067;DHT22;19428;49.024;8.366;2023-08-12T15:31:42;23.40;99.90
33067;DHT22;19428;49.024;8.366;2023-08-12T15:34:07;23.50;99.90
33067;DHT22;19428;49.024;8.366;2023-08-12T15:36:33;23.40;99.90
33067;DHT22;19428;49.024;8.366;2023-08-12T15:39:01;23.40;99.90
33067;DHT22;19428;49.024;8.366;2023-08-12T15:41:27;23.40;99.90
33067;DHT22;19428;49.024;8.366;2023-08-12T15:43:55;23.50;99.90
33067;DHT22;19428;49.024;8.366;2023-08-12T15:46:21;23.10;99.90
33067;DHT22;19428;49.024;8.366;2023-08-12T15:48:47;23.10;99.90
33067;DHT22;19428;49.024;8.366;2023-08-12T15:51:12;23.00;99.90
33067;DHT22;19428;49.024;8.366;2023-08-12T15:53:38;23.00;99.90
33067;DHT22;19428;49.024;8.366;2023-08-12T15:56:03;23.10;99.90
33067;DHT22;19428;49.024;8.366;2023-08-12T15:58:29;23.00;99.90
33067;DHT22;19428;49.024;8.366;2023-08-12T16:00:55;22.90;99.90
33067;DHT22;19428;49.024;8.366;2023-08-12T16:03:23;23.00;99.90
33067;DHT22;19428;49.024;8.366;2023-08-12T16:05:48;23.10;99.90
33067;DHT22;19428;49.024;8.366;2023-08-12T16:08:17;23.00;99.90
33067;DHT22;19428;49.024;8.366;2023-08-12T16:10:44;22.90;99.90
33067;DHT22;19428;49.024;8.366;2023-08-12T16:13:15;22.90;99.90
33067;DHT22;19428;49.024;8.366;2023-08-12T16:15:41;22.90;99.90
33067;DHT22;19428;49.024;8.366;2023-08-12T16:18:12;23.00;99.90
33067;DHT22;19428;49.024;8.366;2023-08-12T16:20:39;23.00;99.90
33067;DHT22;19428;49.024;8.366;2023-08-12T16:23:07;23.10;99.90
33067;DHT22;19428;49.024;8.366;2023-08-12T16:25:42;23.10;99.90
33067;DHT22;19428;49.024;8.366;2023-08-12T16:28:20;23.20;99.90
33067;DHT22;19428;49.024;8.366;2023-08-12T16:30:46;23.40;99.90
33067;DHT22;19428;49.024;8.366;2023-08-12T16:33:18;23.90;99.90
33067;DHT22;19428;49.024;8.366;2023-08-12T16:35:44;23.90;99.90
33067;DHT22;19428;49.024;8.366;2023-08-12T16:38:20;23.90;99.90
33067;DHT22;19428;49.024;8.366;2023-08-12T16:40:52;24.00;99.90
33067;DHT22;19428;49.024;8.366;2023-08-12T16:43:17;24.00;99.90
33067;DHT22;19428;49.024;8.366;2023-08-12T16:45:43;23.80;99.90
33067;DHT22;19428;49.024;8.366;2023-08-12T16:48:09;23.80;99.90
33067;DHT22;19428;49.024;8.366;2023-08-12T16:50:34;23.80;99.90
33067;DHT22;19428;49.024;8.366;2023-08-12T16:53:00;24.10;99.90
33067;DHT22;19428;49.024;8.366;2023-08-12T16:55:26;23.90;99.90
33067;DHT22;19428;49.024;8.366;2023-08-12T16:57:52;23.80;99.90
33067;DHT22;19428;49.024;8.366;2023-08-12T17:00:18;23.60;99.90
33067;DHT22;19428;49.024;8.366;2023-08-12T17:02:44;23.70;99.90
33067;DHT22;19428;49.024;8.366;2023-08-12T17:05:09;23.80;99.90
33067;DHT22;19428;49.024;8.366;2023-08-12T17:07:35;23.60;99.90
33067;DHT22;19428;49.024;8.366;2023-08-12T17:10:01;23.40;99.90
33067;DHT22;19428;49.024;8.366;2023-08-12T17:12:26;23.50;99.90
33067;DHT22;19428;49.024;8.366;2023-08-12T17:14:52;23.50;99.90
33067;DHT22;19428;49.024;8.366;2023-08-12T17:17:18;23.50;99.90
33067;DHT22;19428;49.024;8.366;2023-08-12T17:19:43;23.60;99.90
33067;DHT22;19428;49.024;8.366;2023-08-12T17:22:09;23.80;99.90
33067;DHT22;19428;49.024;8.366;2023-08-12T17:24:35;23.70;99.90
33067;DHT22;19428;49.024;8.366;2023-08-12T17:27:00;23.70;99.90
33067;DHT22;19428;49.024;8.366;2023-08-12T17:29:26;23.50;99.90
33067;DHT22;19428;49.024;8.366;2023-08-12T17:31:52;23.40;99.90
33067;DHT22;19428;49.024;8.366;2023-08-12T17:34:17;23.40;99.90
33067;DHT22;19428;49.024;8.366;2023-08-12T17:36:43;23.40;99.90
33067;DHT22;19428;49.024;8.366;2023-08-12T17:39:08;23.30;99.90
33067;DHT22;19428;49.024;8.366;2023-08-12T17:41:34;23.20;99.90
33067;DHT22;19428;49.024;8.366;2023-08-12T17:44:00;23.10;99.90
33067;DHT22;19428;49.024;8.366;2023-08-12T17:46:26;23.10;99.90
33067;DHT22;19428;49.024;8.366;2023-08-12T17:48:53;23.10;99.90
33067;DHT22;19428;49.024;8.366;2023-08-12T17:51:18;23.00;99.90
33067;DHT22;19428;49.024;8.366;2023-08-12T17:53:45;23.00;99.90
33067;DHT22;19428;49.024;8.366;2023-08-12T17:56:13;23.00;99.90
33067;DHT22;19428;49.024;8.366;2023-08-12T17:58:39;22.90;99.90
33067;DHT22;19428;49.024;8.366;2023-08-12T18:01:05;23.00;99.90
33067;DHT22;19428;49.024;8.366;2023-08-12T18:03:30;23.00;99.90
33067;DHT22;19428;49.024;8.366;2023-08-12T18:05:56;22.90;99.90
33067;DHT22;19428;49.024;8.366;2023-08-12T18:08:22;22.80;99.90
33067;DHT22;19428;49.024;8.366;2023-08-12T18:10:48;22.90;99.90
33067;DHT22;19428;49.024;8.366;2023-08-12T18:13:14;22.90;99.90
33067;DHT22;19428;49.024;8.366;2023-08-12T18:15:40;22.90;99.90
33067;DHT22;19428;49.024;8.366;2023-08-12T18:18:05;22.90;99.90
33067;DHT22;19428;49.024;8.366;2023-08-12T18:20:31;22.90;99.90
33067;DHT22;19428;49.024;8.366;2023-08-12T18:22:56;22.90;99.90
33067;DHT22;19428;49.024;8.366;2023-08-12T18:25:23;22.80;99.90
33067;DHT22;19428;49.024;8.366;2023-08-12T18:27:49;22.80;99.90
33067;DHT22;19428;49.024;8.366;2023-08-12T18:30:15;22.80;99.90
33067;DHT22;19428;49.024;8.366;2023-08-12T18:32:40;22.70;99.90
33067;DHT22;19428;49.024;8.366;2023-08-12T18:35:06;22.70;99.90
33067;DHT22;19428;49.024;8.366;2023-08-12T18:37:32;22.70;99.90
33067;DHT22;19428;49.024;8.366;2023-08-12T18:39:58;22.50;99.90
33067;DHT22;19428;49.024;8.366;2023-08-12T18:42:23;22.40;99.90
33067;DHT22;19428;49.024;8.366;2023-08-12T18:44:49;22.40;99.90
33067;DHT22;19428;49.024;8.366;2023-08-12T18:47:15;22.40;99.90
33067;DHT22;19428;49.024;8.366;2023-08-12T18:49:45;22.40;99.90
33067;DHT22;19428;49.024;8.366;2023-08-12T18:52:11;22.50;99.90
33067;DHT22;19428;49.024;8.366;2023-08-12T18:54:37;22.40;99.90
33067;DHT22;19428;49.024;8.366;2023-08-12T18:57:02;22.30;99.90
33067;DHT22;19428;49.024;8.366;2023-08-12T18:59:28;22.40;99.90
33067;DHT22;19428;49.024;8.366;2023-08-12T19:01:55;22.40;99.90
33067;DHT22;19428;49.024;8.366;2023-08-12T19:04:20;22.30;99.90
33067;DHT22;19428;49.024;8.366;2023-08-12T19:06:46;22.30;99.90
33067;DHT22;19428;49.024;8.366;2023-08-12T19:09:13;22.20;99.90
33067;DHT22;19428;49.024;8.366;2023-08-12T19:11:41;22.30;99.90
33067;DHT22;19428;49.024;8.366;2023-08-12T19:14:07;22.30;99.90
33067;DHT22;19428;49.024;8.366;2023-08-12T19:16:32;22.30;99.90
33067;DHT22;19428;49.024;8.366;2023-08-12T19:18:58;22.30;99.90
33067;DHT22;19428;49.024;8.366;2023-08-12T19:21:23;22.30;99.90
33067;DHT22;19428;49.024;8.366;2023-08-12T19:23:49;22.20;99.90
33067;DHT22;19428;49.024;8.366;2023-08-12T19:26:15;22.30;99.90
33067;DHT22;19428;49.024;8.366;2023-08-12T19:28:40;22.30;99.90
33067;DHT22;19428;49.024;8.366;2023-08-12T19:31:06;22.20;99.90
33067;DHT22;19428;49.024;8.366;2023-08-12T19:33:31;22.20;99.90
33067;DHT22;19428;49.024;8.366;2023-08-12T19:35:57;22.20;99.90
33067;DHT22;19428;49.024;8.366;2023-08-12T19:38:23;22.20;99.90
33067;DHT22;19428;49.024;8.366;2023-08-12T19:40:48;22.20;99.90
33067;DHT22;19428;49.024;8.366;2023-08-12T19:43:14;22.20;99.90
33067;DHT22;19428;49.024;8.366;2023-08-12T19:45:40;22.20;99.90
33067;DHT22;19428;49.024;8.366;2023-08-12T19:48:06;22.20;99.90
33067;DHT22;19428;49.024;8.366;2023-08-12T19:50:31;22.20;99.90
33067;DHT22;19428;49.024;8.366;2023-08-12T19:52:58;22.30;99.90
33067;DHT22;19428;49.024;8.366;2023-08-12T19:55:24;22.30;99.90
33067;DHT22;19428;49.024;8.366;2023-08-12T19:57:50;22.30;99.90